createdAt,value
2019-05-29T00:00:03.166Z,87.16
2019-05-29T00:00:34.231Z,87.13
2019-05-29T00:01:03.171Z,87.05
2019-05-29T00:01:36.104Z,86.97
2019-05-29T00:02:03.156Z,86.81
2019-05-29T00:02:39.109Z,86.69
2019-05-29T00:03:03.160Z,86.39
2019-05-29T00:03:33.106Z,86.33
2019-05-29T00:04:03.152Z,86.25
2019-05-29T00:04:33.098Z,86.32
2019-05-29T00:05:03.151Z,86.43
2019-05-29T00:05:33.212Z,86.49
2019-05-29T00:06:03.172Z,86.43
2019-05-29T00:06:33.100Z,86.74
2019-05-29T00:07:03.154Z,86.73
2019-05-29T00:07:33.104Z,86.42
2019-05-29T00:08:03.153Z,86.45
2019-05-29T00:08:33.102Z,86.49
2019-05-29T00:09:03.155Z,86.53
2019-05-29T00:09:33.153Z,86.43
2019-05-29T00:10:03.157Z,86.48
2019-05-29T00:10:33.106Z,86.54
2019-05-29T00:11:04.268Z,86.48
2019-05-29T00:11:33.108Z,86.57
2019-05-29T00:12:07.593Z,86.78
2019-05-29T00:12:33.100Z,87.03
2019-05-29T00:13:12.282Z,87.17
2019-05-29T00:13:33.113Z,87.24
2019-05-29T00:14:19.630Z,87.35
2019-05-29T00:14:33.098Z,87.38
2019-05-29T00:15:03.168Z,87.36
2019-05-29T00:15:33.101Z,87.40
2019-05-29T00:16:03.159Z,87.42
2019-05-29T00:16:33.112Z,87.40
2019-05-29T00:17:03.245Z,87.41
2019-05-29T00:17:33.091Z,87.34
2019-05-29T00:18:03.262Z,87.35
2019-05-29T00:18:33.098Z,87.20
2019-05-29T00:19:03.156Z,87.19
2019-05-29T00:19:33.104Z,87.20
2019-05-29T00:20:03.244Z,87.08
2019-05-29T00:20:33.094Z,87.21
2019-05-29T00:21:03.166Z,87.31
2019-05-29T00:21:34.391Z,87.35
2019-05-29T00:22:03.156Z,87.56
2019-05-29T00:22:36.136Z,87.60
2019-05-29T00:23:03.166Z,87.63
2019-05-29T00:23:39.177Z,87.69
2019-05-29T00:24:03.201Z,87.70
2019-05-29T00:24:33.108Z,87.73
2019-05-29T00:25:03.159Z,87.79
2019-05-29T00:25:33.112Z,87.82
2019-05-29T00:26:03.173Z,87.84
2019-05-29T00:26:33.104Z,87.82
2019-05-29T00:27:03.171Z,87.86
2019-05-29T00:27:33.105Z,87.90
2019-05-29T00:28:03.164Z,87.70
2019-05-29T00:28:33.103Z,87.54
2019-05-29T00:29:03.163Z,87.59
2019-05-29T00:29:33.098Z,87.68
2019-05-29T00:30:03.166Z,87.72
2019-05-29T00:30:33.109Z,87.79
2019-05-29T00:31:03.159Z,87.83
2019-05-29T00:31:33.106Z,87.85
2019-05-29T00:32:04.300Z,87.93
2019-05-29T00:32:33.172Z,87.86
2019-05-29T00:33:06.201Z,87.75
2019-05-29T00:33:33.100Z,87.71
2019-05-29T00:34:09.240Z,87.74
2019-05-29T00:34:33.104Z,87.74
2019-05-29T00:35:03.207Z,87.80
2019-05-29T00:35:33.105Z,87.81
2019-05-29T00:36:03.158Z,87.94
2019-05-29T00:36:33.104Z,87.97
2019-05-29T00:37:03.164Z,87.97
2019-05-29T00:37:33.106Z,88.00
2019-05-29T00:38:03.298Z,88.09
2019-05-29T00:38:33.104Z,88.10
2019-05-29T00:39:03.214Z,88.15
2019-05-29T00:39:33.108Z,88.20
2019-05-29T00:40:03.171Z,88.15
2019-05-29T00:40:33.125Z,88.11
2019-05-29T00:41:03.266Z,88.20
2019-05-29T00:41:33.112Z,88.18
2019-05-29T00:42:03.175Z,88.11
2019-05-29T00:42:34.184Z,88.04
2019-05-29T00:43:03.221Z,87.91
2019-05-29T00:43:36.180Z,87.94
2019-05-29T00:44:03.160Z,88.10
2019-05-29T00:44:39.185Z,88.17
2019-05-29T00:45:03.232Z,88.16
2019-05-29T00:45:33.112Z,87.97
2019-05-29T00:46:03.165Z,87.99
2019-05-29T00:46:33.122Z,87.97
2019-05-29T00:47:03.221Z,87.88
2019-05-29T00:47:33.111Z,87.96
2019-05-29T00:48:03.175Z,88.08
2019-05-29T00:48:33.113Z,88.11
2019-05-29T00:49:03.166Z,88.05
2019-05-29T00:49:33.105Z,88.16
2019-05-29T00:50:03.170Z,88.16
2019-05-29T00:50:33.110Z,88.22
2019-05-29T00:51:03.165Z,88.17
2019-05-29T00:51:33.104Z,88.22
2019-05-29T00:52:03.172Z,88.27
2019-05-29T00:52:33.110Z,88.22
2019-05-29T00:53:04.184Z,88.37
2019-05-29T00:53:33.107Z,88.46
2019-05-29T00:54:06.086Z,88.51
2019-05-29T00:54:33.112Z,88.52
2019-05-29T00:55:09.379Z,88.51
2019-05-29T00:55:33.154Z,88.44
2019-05-29T00:56:03.179Z,88.52
2019-05-29T00:56:33.116Z,88.51
2019-05-29T00:57:03.165Z,88.47
2019-05-29T00:57:33.245Z,88.53
2019-05-29T00:58:03.170Z,88.62
2019-05-29T00:58:33.118Z,88.62
2019-05-29T00:59:03.180Z,88.69
2019-05-29T00:59:33.166Z,88.72
2019-05-29T01:00:03.166Z,88.75
2019-05-29T01:00:33.109Z,88.69
2019-05-29T01:01:03.167Z,88.75
2019-05-29T01:01:33.177Z,88.78
2019-05-29T01:02:03.171Z,88.82
2019-05-29T01:02:33.114Z,88.89
2019-05-29T01:03:03.172Z,88.84
2019-05-29T01:03:34.168Z,88.88
2019-05-29T01:04:03.167Z,88.85
2019-05-29T01:04:36.157Z,88.73
2019-05-29T01:05:03.168Z,88.80
2019-05-29T01:05:39.158Z,88.73
2019-05-29T01:06:03.312Z,88.70
2019-05-29T01:06:33.114Z,88.71
2019-05-29T01:07:03.175Z,88.63
2019-05-29T01:07:33.109Z,88.62
2019-05-29T01:08:03.220Z,88.58
2019-05-29T01:08:33.119Z,88.32
2019-05-29T01:09:03.166Z,88.34
2019-05-29T01:09:33.116Z,88.50
2019-05-29T01:10:03.264Z,88.49
2019-05-29T01:10:33.125Z,88.47
2019-05-29T01:11:03.166Z,88.43
2019-05-29T01:11:33.121Z,88.39
2019-05-29T01:12:03.175Z,88.34
2019-05-29T01:12:33.115Z,88.39
2019-05-29T01:13:03.179Z,88.45
2019-05-29T01:13:33.125Z,88.40
2019-05-29T01:14:04.240Z,88.44
2019-05-29T01:14:33.116Z,88.39
2019-05-29T01:15:06.097Z,88.42
2019-05-29T01:15:33.116Z,88.39
2019-05-29T01:16:09.073Z,88.42
2019-05-29T01:16:33.115Z,88.40
2019-05-29T01:17:03.169Z,88.38
2019-05-29T01:17:33.113Z,88.40
2019-05-29T01:18:03.174Z,88.37
2019-05-29T01:18:33.122Z,88.39
2019-05-29T01:19:03.172Z,88.25
2019-05-29T01:19:33.131Z,88.18
2019-05-29T01:20:03.175Z,88.00
2019-05-29T01:20:33.357Z,88.02
2019-05-29T01:21:03.174Z,88.09
2019-05-29T01:21:33.119Z,88.06
2019-05-29T01:22:03.176Z,88.07
2019-05-29T01:22:33.208Z,88.00
2019-05-29T01:23:03.184Z,88.05
2019-05-29T01:23:33.115Z,88.02
2019-05-29T01:24:03.175Z,88.03
2019-05-29T01:24:34.271Z,88.05
2019-05-29T01:25:03.174Z,88.11
2019-05-29T01:25:36.149Z,88.05
2019-05-29T01:26:03.174Z,88.05
2019-05-29T01:26:39.189Z,88.04
2019-05-29T01:27:03.176Z,88.02
2019-05-29T01:27:33.123Z,88.00
2019-05-29T01:28:03.178Z,87.93
2019-05-29T01:28:33.151Z,87.99
2019-05-29T01:29:03.173Z,87.95
2019-05-29T01:29:33.119Z,87.97
2019-05-29T01:30:03.177Z,87.95
2019-05-29T01:30:33.134Z,87.91
2019-05-29T01:31:03.173Z,87.92
2019-05-29T01:31:33.123Z,87.95
2019-05-29T01:32:03.179Z,87.93
2019-05-29T01:32:33.121Z,87.93
2019-05-29T01:33:03.178Z,87.89
2019-05-29T01:33:33.124Z,87.88
2019-05-29T01:34:03.172Z,87.92
2019-05-29T01:34:33.119Z,88.02
2019-05-29T01:35:04.245Z,88.06
2019-05-29T01:35:33.123Z,88.07
2019-05-29T01:36:06.095Z,87.84
2019-05-29T01:36:33.114Z,87.78
2019-05-29T01:37:09.165Z,87.71
2019-05-29T01:37:33.120Z,87.67
2019-05-29T01:38:03.179Z,87.58
2019-05-29T01:38:33.119Z,87.58
2019-05-29T01:39:03.194Z,87.68
2019-05-29T01:39:33.127Z,87.66
2019-05-29T01:40:18.653Z,87.64
2019-05-29T01:40:33.112Z,87.65
2019-05-29T01:41:03.179Z,87.59
2019-05-29T01:41:33.124Z,87.54
2019-05-29T01:42:03.175Z,87.48
2019-05-29T01:42:33.119Z,87.37
2019-05-29T01:43:03.194Z,87.30
2019-05-29T01:43:33.121Z,87.31
2019-05-29T01:44:03.181Z,87.34
2019-05-29T01:44:33.133Z,87.38
2019-05-29T01:45:08.012Z,87.36
2019-05-29T01:45:34.327Z,87.43
2019-05-29T01:46:03.193Z,87.46
2019-05-29T01:46:36.162Z,87.36
2019-05-29T01:47:03.179Z,87.35
2019-05-29T01:47:39.211Z,87.34
2019-05-29T01:48:03.179Z,87.32
2019-05-29T01:48:33.144Z,87.38
2019-05-29T01:49:03.184Z,87.42
2019-05-29T01:49:33.237Z,87.41
2019-05-29T01:50:03.192Z,87.46
2019-05-29T01:50:33.121Z,87.42
2019-05-29T01:51:03.180Z,87.38
2019-05-29T01:51:33.152Z,87.41
2019-05-29T01:52:03.175Z,87.35
2019-05-29T01:52:33.121Z,87.29
2019-05-29T01:53:03.180Z,87.26
2019-05-29T01:53:33.215Z,87.24
2019-05-29T01:54:03.185Z,87.29
2019-05-29T01:54:33.129Z,87.37
2019-05-29T01:55:03.181Z,87.49
2019-05-29T01:55:33.142Z,87.55
2019-05-29T01:56:04.357Z,87.59
2019-05-29T01:56:33.119Z,87.62
2019-05-29T01:57:06.113Z,87.64
2019-05-29T01:57:33.133Z,87.66
2019-05-29T01:58:09.221Z,87.70
2019-05-29T01:58:33.122Z,87.71
2019-05-29T01:59:03.179Z,87.80
2019-05-29T01:59:33.130Z,87.94
2019-05-29T02:00:03.260Z,88.07
2019-05-29T02:00:33.130Z,88.21
2019-05-29T02:01:03.189Z,88.27
2019-05-29T02:01:33.124Z,88.32
2019-05-29T02:02:03.187Z,88.27
2019-05-29T02:02:33.133Z,88.19
2019-05-29T02:03:03.190Z,87.99
2019-05-29T02:03:33.124Z,88.00
2019-05-29T02:04:03.185Z,87.96
2019-05-29T02:04:33.129Z,87.97
2019-05-29T02:05:03.186Z,87.90
2019-05-29T02:05:33.120Z,87.87
2019-05-29T02:06:03.240Z,87.82
2019-05-29T02:06:34.180Z,87.70
2019-05-29T02:07:03.182Z,87.50
2019-05-29T02:07:36.131Z,87.51
2019-05-29T02:08:03.185Z,87.62
2019-05-29T02:08:39.217Z,87.59
2019-05-29T02:09:03.186Z,87.51
2019-05-29T02:09:33.129Z,87.56
2019-05-29T02:10:03.188Z,87.68
2019-05-29T02:10:33.137Z,87.65
2019-05-29T02:11:03.186Z,87.57
2019-05-29T02:11:33.130Z,87.68
2019-05-29T02:12:03.185Z,87.76
2019-05-29T02:12:33.136Z,87.75
2019-05-29T02:13:03.253Z,87.70
2019-05-29T02:13:33.134Z,87.70
2019-05-29T02:14:03.192Z,87.77
2019-05-29T02:14:33.256Z,87.69
2019-05-29T02:15:03.188Z,87.68
2019-05-29T02:15:35.147Z,87.66
2019-05-29T02:16:03.188Z,87.57
2019-05-29T02:16:33.180Z,87.53
2019-05-29T02:17:04.329Z,87.52
2019-05-29T02:17:33.131Z,87.59
2019-05-29T02:18:06.114Z,87.55
2019-05-29T02:18:33.186Z,87.57
2019-05-29T02:19:09.159Z,87.55
2019-05-29T02:19:33.133Z,87.50
2019-05-29T02:20:03.191Z,87.49
2019-05-29T02:20:33.142Z,87.38
2019-05-29T02:21:03.184Z,87.48
2019-05-29T02:21:33.291Z,87.59
2019-05-29T02:22:04.976Z,87.55
2019-05-29T02:22:33.166Z,87.36
2019-05-29T02:23:03.185Z,87.35
2019-05-29T02:23:33.144Z,87.49
2019-05-29T02:24:03.183Z,87.43
2019-05-29T02:24:33.145Z,87.41
2019-05-29T02:25:03.273Z,87.41
2019-05-29T02:25:33.131Z,87.41
2019-05-29T02:26:03.191Z,87.45
2019-05-29T02:26:33.131Z,87.38
2019-05-29T02:27:03.187Z,87.43
2019-05-29T02:27:34.452Z,87.27
2019-05-29T02:28:03.203Z,87.30
2019-05-29T02:28:36.174Z,87.50
2019-05-29T02:29:03.205Z,87.53
2019-05-29T02:29:39.202Z,87.41
2019-05-29T02:30:03.203Z,87.31
2019-05-29T02:30:33.138Z,87.34
2019-05-29T02:31:03.208Z,87.14
2019-05-29T02:31:33.136Z,87.29
2019-05-29T02:32:03.195Z,87.37
2019-05-29T02:32:33.144Z,87.27
2019-05-29T02:33:03.209Z,87.21
2019-05-29T02:33:33.131Z,87.22
2019-05-29T02:34:07.391Z,87.29
2019-05-29T02:34:33.138Z,87.33
2019-05-29T02:35:03.197Z,87.49
2019-05-29T02:35:33.128Z,87.33
2019-05-29T02:36:03.196Z,87.24
2019-05-29T02:36:33.146Z,87.32
2019-05-29T02:37:03.200Z,87.36
2019-05-29T02:37:33.134Z,87.35
2019-05-29T02:38:04.379Z,87.36
2019-05-29T02:38:33.138Z,87.30
2019-05-29T02:39:06.104Z,87.30
2019-05-29T02:39:33.141Z,87.39
2019-05-29T02:40:09.125Z,87.36
2019-05-29T02:40:33.139Z,87.39
2019-05-29T02:41:03.193Z,87.18
2019-05-29T02:41:33.152Z,87.26
2019-05-29T02:42:03.196Z,87.36
2019-05-29T02:42:33.137Z,87.43
2019-05-29T02:43:03.212Z,87.50
2019-05-29T02:43:33.219Z,87.51
2019-05-29T02:44:03.197Z,87.51
2019-05-29T02:44:33.144Z,87.18
2019-05-29T02:45:03.206Z,87.01
2019-05-29T02:45:52.442Z,87.08
2019-05-29T02:46:03.205Z,87.11
2019-05-29T02:46:33.144Z,87.16
2019-05-29T02:47:03.201Z,87.26
2019-05-29T02:47:33.143Z,87.26
2019-05-29T02:48:03.195Z,87.14
2019-05-29T02:48:34.289Z,87.26
2019-05-29T02:49:03.200Z,87.31
2019-05-29T02:49:36.181Z,87.45
2019-05-29T02:50:03.265Z,87.49
2019-05-29T02:50:39.210Z,87.46
2019-05-29T02:51:03.199Z,87.43
2019-05-29T02:51:33.146Z,87.47
2019-05-29T02:52:03.303Z,87.45
2019-05-29T02:52:33.139Z,87.39
2019-05-29T02:53:03.195Z,87.44
2019-05-29T02:53:33.137Z,87.24
2019-05-29T02:54:03.291Z,87.18
2019-05-29T02:54:33.140Z,87.13
2019-05-29T02:55:03.205Z,87.22
2019-05-29T02:55:33.135Z,87.35
2019-05-29T02:56:03.221Z,87.49
2019-05-29T02:56:33.142Z,87.46
2019-05-29T02:57:03.205Z,87.44
2019-05-29T02:57:33.139Z,87.51
2019-05-29T02:58:03.203Z,87.30
2019-05-29T02:58:33.138Z,87.38
2019-05-29T02:59:04.286Z,87.52
2019-05-29T02:59:33.144Z,87.52
2019-05-29T03:00:06.127Z,87.49
2019-05-29T03:00:33.144Z,87.37
2019-05-29T03:01:09.144Z,87.41
2019-05-29T03:01:33.147Z,87.28
2019-05-29T03:02:03.206Z,87.20
2019-05-29T03:02:33.142Z,87.35
2019-05-29T03:03:03.203Z,87.26
2019-05-29T03:03:39.615Z,87.28
2019-05-29T03:04:03.209Z,87.40
2019-05-29T03:04:34.292Z,87.24
2019-05-29T03:05:03.201Z,87.03
2019-05-29T03:05:33.146Z,87.03
2019-05-29T03:06:03.218Z,87.10
2019-05-29T03:06:34.693Z,87.11
2019-05-29T03:07:03.202Z,87.06
2019-05-29T03:07:33.141Z,86.96
2019-05-29T03:08:03.193Z,87.03
2019-05-29T03:08:35.175Z,87.08
2019-05-29T03:09:03.196Z,87.05
2019-05-29T03:09:34.263Z,86.90
2019-05-29T03:10:03.200Z,86.74
2019-05-29T03:10:36.178Z,86.64
2019-05-29T03:11:03.203Z,86.60
2019-05-29T03:11:39.147Z,86.67
2019-05-29T03:12:03.207Z,86.82
2019-05-29T03:12:34.166Z,86.95
2019-05-29T03:13:03.205Z,86.83
2019-05-29T03:13:34.153Z,86.82
2019-05-29T03:14:03.191Z,86.68
2019-05-29T03:14:35.163Z,86.57
2019-05-29T03:15:03.338Z,86.51
2019-05-29T03:15:34.174Z,86.57
2019-05-29T03:16:11.016Z,86.54
2019-05-29T03:16:35.217Z,86.64
2019-05-29T03:17:03.284Z,86.67
2019-05-29T03:17:34.179Z,86.72
2019-05-29T03:18:03.209Z,86.74
2019-05-29T03:18:35.328Z,86.82
2019-05-29T03:19:03.213Z,86.56
2019-05-29T03:19:35.201Z,86.36
2019-05-29T03:20:04.281Z,86.42
2019-05-29T03:20:35.160Z,86.18
2019-05-29T03:21:06.171Z,86.20
2019-05-29T03:21:35.163Z,86.24
2019-05-29T03:22:09.194Z,86.47
2019-05-29T03:22:35.433Z,86.33
2019-05-29T03:23:03.204Z,86.14
2019-05-29T03:23:36.060Z,86.10
2019-05-29T03:24:03.198Z,86.22
2019-05-29T03:24:35.322Z,86.24
2019-05-29T03:25:03.208Z,86.34
2019-05-29T03:25:34.887Z,86.42
2019-05-29T03:26:03.210Z,86.72
2019-05-29T03:26:35.298Z,86.78
2019-05-29T03:27:03.219Z,86.86
2019-05-29T03:27:34.176Z,86.84
2019-05-29T03:28:03.328Z,86.90
2019-05-29T03:28:35.885Z,86.96
2019-05-29T03:29:03.209Z,87.05
2019-05-29T03:29:35.292Z,87.16
2019-05-29T03:30:03.203Z,86.98
2019-05-29T03:30:41.969Z,86.96
2019-05-29T03:31:03.217Z,87.16
2019-05-29T03:31:42.699Z,87.01
2019-05-29T03:32:03.250Z,87.09
2019-05-29T03:32:46.938Z,87.19
2019-05-29T03:33:03.218Z,87.14
2019-05-29T03:33:44.433Z,87.23
2019-05-29T03:34:03.519Z,87.27
2019-05-29T03:34:41.724Z,87.02
2019-05-29T03:35:03.207Z,87.03
2019-05-29T03:35:42.911Z,87.18
2019-05-29T03:36:03.262Z,87.28
2019-05-29T03:36:41.850Z,87.08
2019-05-29T03:37:03.210Z,86.86
2019-05-29T03:37:35.175Z,86.80
2019-05-29T03:38:03.213Z,86.71
2019-05-29T03:38:35.257Z,86.74
2019-05-29T03:39:03.203Z,86.73
2019-05-29T03:39:35.167Z,86.83
2019-05-29T03:40:03.209Z,86.85
2019-05-29T03:40:35.312Z,86.87
2019-05-29T03:41:04.232Z,86.82
2019-05-29T03:41:35.164Z,86.74
2019-05-29T03:42:06.282Z,86.73
2019-05-29T03:42:35.166Z,86.67
2019-05-29T03:43:09.204Z,86.70
2019-05-29T03:43:35.851Z,86.83
2019-05-29T03:44:03.287Z,86.90
2019-05-29T03:44:35.489Z,86.86
2019-05-29T03:45:03.203Z,86.95
2019-05-29T03:45:36.159Z,86.89
2019-05-29T03:46:03.315Z,86.87
2019-05-29T03:46:42.609Z,86.87
2019-05-29T03:47:03.211Z,86.91
2019-05-29T03:47:35.531Z,86.96
2019-05-29T03:48:03.240Z,86.78
2019-05-29T03:48:35.174Z,86.82
2019-05-29T03:49:03.215Z,86.79
2019-05-29T03:49:35.147Z,86.81
2019-05-29T03:50:03.227Z,86.72
2019-05-29T03:50:35.171Z,86.72
2019-05-29T03:51:03.247Z,86.73
2019-05-29T03:51:38.957Z,86.81
2019-05-29T03:52:03.214Z,86.97
2019-05-29T03:52:39.023Z,87.05
2019-05-29T03:53:04.295Z,86.95
2019-05-29T03:53:41.199Z,86.90
2019-05-29T03:54:03.226Z,86.93
2019-05-29T03:54:38.709Z,86.89
2019-05-29T03:55:03.219Z,86.91
2019-05-29T03:55:35.796Z,86.79
2019-05-29T03:56:03.227Z,86.77
2019-05-29T03:56:35.170Z,86.78
2019-05-29T03:57:03.221Z,86.70
2019-05-29T03:57:35.743Z,86.67
2019-05-29T03:58:03.209Z,86.64
2019-05-29T03:58:35.884Z,86.61
2019-05-29T03:59:03.214Z,86.70
2019-05-29T03:59:37.016Z,86.53
2019-05-29T04:00:03.222Z,86.41
2019-05-29T04:00:41.107Z,86.43
2019-05-29T04:01:03.214Z,86.49
2019-05-29T04:01:35.462Z,86.63
2019-05-29T04:02:04.356Z,86.45
2019-05-29T04:02:35.487Z,86.24
2019-05-29T04:03:06.148Z,86.26
2019-05-29T04:03:35.933Z,86.29
2019-05-29T04:04:09.172Z,86.33
2019-05-29T04:04:36.095Z,86.22
2019-05-29T04:05:03.215Z,86.17
2019-05-29T04:05:35.447Z,86.05
2019-05-29T04:06:03.215Z,85.91
2019-05-29T04:06:35.515Z,85.94
2019-05-29T04:07:03.227Z,86.06
2019-05-29T04:07:44.086Z,86.05
2019-05-29T04:08:13.972Z,86.08
2019-05-29T04:08:44.038Z,85.93
2019-05-29T04:09:13.977Z,85.82
2019-05-29T04:09:44.033Z,85.95
2019-05-29T04:10:13.978Z,85.91
2019-05-29T04:10:44.034Z,85.76
2019-05-29T04:11:13.976Z,85.78
2019-05-29T04:11:44.040Z,85.85
2019-05-29T04:12:13.969Z,85.95
2019-05-29T04:12:44.044Z,85.96
2019-05-29T04:13:14.048Z,86.04
2019-05-29T04:13:44.037Z,85.87
2019-05-29T04:14:13.975Z,85.71
2019-05-29T04:14:44.036Z,85.79
2019-05-29T04:15:13.977Z,85.82
2019-05-29T04:15:44.242Z,85.73
2019-05-29T04:16:13.972Z,85.61
2019-05-29T04:16:58.852Z,85.50
2019-05-29T04:17:13.972Z,85.29
2019-05-29T04:17:48.109Z,85.35
2019-05-29T04:18:13.971Z,85.43
2019-05-29T04:18:47.093Z,85.51
2019-05-29T04:19:13.971Z,85.34
2019-05-29T04:19:44.046Z,85.10
2019-05-29T04:20:13.975Z,85.09
2019-05-29T04:20:44.036Z,85.32
2019-05-29T04:21:13.969Z,85.54
2019-05-29T04:21:44.093Z,85.64
2019-05-29T04:22:14.014Z,85.55
2019-05-29T04:22:44.044Z,85.26
2019-05-29T04:23:13.971Z,85.19
2019-05-29T04:23:44.046Z,85.25
2019-05-29T04:24:13.974Z,85.37
2019-05-29T04:24:44.052Z,85.44
2019-05-29T04:25:13.989Z,85.47
2019-05-29T04:25:44.035Z,85.49
2019-05-29T04:26:13.983Z,85.41
2019-05-29T04:26:44.043Z,85.27
2019-05-29T04:27:16.239Z,85.26
2019-05-29T04:27:44.038Z,85.20
2019-05-29T04:28:18.066Z,85.26
2019-05-29T04:28:44.080Z,85.25
2019-05-29T04:29:13.989Z,85.29
2019-05-29T04:29:44.036Z,85.32
2019-05-29T04:30:13.971Z,85.42
2019-05-29T04:30:44.050Z,85.29
2019-05-29T04:31:14.068Z,85.33
2019-05-29T04:31:44.044Z,85.44
2019-05-29T04:32:13.989Z,85.36
2019-05-29T04:32:44.040Z,85.24
2019-05-29T04:33:13.984Z,85.24
2019-05-29T04:33:44.054Z,85.35
2019-05-29T04:34:13.980Z,85.46
2019-05-29T04:34:44.040Z,85.41
2019-05-29T04:35:13.972Z,85.31
2019-05-29T04:35:44.055Z,85.35
2019-05-29T04:36:14.043Z,85.26
2019-05-29T04:36:44.041Z,85.33
2019-05-29T04:37:13.978Z,85.33
2019-05-29T04:37:46.264Z,85.44
2019-05-29T04:38:13.991Z,85.46
2019-05-29T04:38:48.298Z,85.23
2019-05-29T04:39:13.980Z,84.87
2019-05-29T04:39:47.062Z,84.83
2019-05-29T04:40:13.978Z,84.85
2019-05-29T04:40:44.042Z,84.65
2019-05-29T04:41:13.986Z,84.71
2019-05-29T04:41:44.045Z,84.73
2019-05-29T04:42:13.982Z,84.85
2019-05-29T04:42:44.175Z,84.89
2019-05-29T04:43:13.985Z,84.82
2019-05-29T04:43:44.044Z,84.67
2019-05-29T04:44:13.984Z,84.65
2019-05-29T04:44:44.126Z,84.64
2019-05-29T04:45:13.981Z,84.52
2019-05-29T04:45:44.051Z,84.63
2019-05-29T04:46:13.976Z,84.64
2019-05-29T04:46:44.103Z,84.58
2019-05-29T04:47:13.977Z,84.61
2019-05-29T04:47:44.050Z,84.59
2019-05-29T04:48:16.132Z,84.48
2019-05-29T04:48:44.072Z,84.34
2019-05-29T04:49:20.221Z,84.28
2019-05-29T04:49:44.049Z,84.21
2019-05-29T04:50:13.980Z,84.19
2019-05-29T04:50:44.042Z,84.37
2019-05-29T04:51:13.980Z,84.29
2019-05-29T04:51:44.047Z,83.98
2019-05-29T04:52:13.990Z,83.85
2019-05-29T04:52:44.040Z,83.78
2019-05-29T04:53:13.982Z,84.05
2019-05-29T04:53:44.048Z,83.79
2019-05-29T04:54:13.991Z,83.84
2019-05-29T04:54:44.054Z,84.14
2019-05-29T04:55:13.993Z,83.77
2019-05-29T04:55:44.056Z,83.86
2019-05-29T04:56:13.984Z,83.51
2019-05-29T04:56:44.047Z,83.75
2019-05-29T04:57:14.061Z,83.81
2019-05-29T04:57:44.062Z,83.88
2019-05-29T04:58:13.992Z,83.55
2019-05-29T04:58:46.215Z,83.74
2019-05-29T04:59:13.999Z,83.64
2019-05-29T04:59:48.168Z,83.73
2019-05-29T05:00:13.996Z,83.78
2019-05-29T05:00:58.798Z,83.58
2019-05-29T05:01:14.042Z,83.59
2019-05-29T05:01:45.051Z,83.68
2019-05-29T05:02:13.982Z,83.84
2019-05-29T05:02:44.051Z,83.93
2019-05-29T05:03:14.065Z,84.18
2019-05-29T05:03:44.059Z,84.35
2019-05-29T05:04:13.995Z,84.17
2019-05-29T05:04:44.049Z,84.14
2019-05-29T05:05:13.983Z,83.91
2019-05-29T05:05:44.300Z,83.87
2019-05-29T05:06:13.988Z,83.97
2019-05-29T05:06:44.060Z,83.85
2019-05-29T05:07:15.006Z,83.54
2019-05-29T05:07:44.206Z,83.40
2019-05-29T05:08:13.982Z,83.36
2019-05-29T05:08:44.048Z,83.33
2019-05-29T05:09:16.235Z,83.46
2019-05-29T05:09:44.106Z,83.48
2019-05-29T05:10:18.078Z,82.99
2019-05-29T05:10:44.052Z,83.07
2019-05-29T05:11:13.988Z,83.17
2019-05-29T05:11:44.204Z,83.14
2019-05-29T05:12:13.990Z,83.23
2019-05-29T05:12:44.089Z,83.28
2019-05-29T05:13:13.990Z,83.00
2019-05-29T05:13:44.137Z,83.30
2019-05-29T05:14:13.984Z,83.47
2019-05-29T05:14:44.052Z,83.48
2019-05-29T05:15:13.992Z,83.71
2019-05-29T05:15:44.067Z,83.84
2019-05-29T05:16:14.007Z,83.77
2019-05-29T05:16:44.050Z,83.97
2019-05-29T05:17:25.563Z,83.81
2019-05-29T05:17:44.056Z,83.59
2019-05-29T05:18:13.982Z,83.19
2019-05-29T05:18:44.047Z,82.97
2019-05-29T05:19:16.969Z,82.96
2019-05-29T05:19:46.249Z,82.82
2019-05-29T05:20:13.986Z,82.92
2019-05-29T05:20:48.270Z,83.21
2019-05-29T05:21:13.983Z,83.37
2019-05-29T05:21:47.094Z,83.25
2019-05-29T05:22:13.990Z,82.97
2019-05-29T05:22:44.055Z,82.91
2019-05-29T05:23:13.988Z,82.63
2019-05-29T05:23:44.056Z,82.80
2019-05-29T05:24:13.990Z,81.99
2019-05-29T05:24:45.063Z,82.17
2019-05-29T05:25:13.994Z,82.56
2019-05-29T05:25:44.058Z,82.77
2019-05-29T05:26:14.096Z,82.76
2019-05-29T05:26:44.053Z,82.62
2019-05-29T05:27:14.000Z,82.81
2019-05-29T05:27:44.050Z,82.77
2019-05-29T05:28:14.064Z,82.69
2019-05-29T05:28:46.824Z,82.71
2019-05-29T05:29:14.006Z,82.82
2019-05-29T05:29:44.055Z,82.53
2019-05-29T05:30:16.262Z,82.38
2019-05-29T05:30:44.058Z,82.45
2019-05-29T05:31:18.239Z,82.61
2019-05-29T05:31:44.068Z,82.44
2019-05-29T05:32:14.020Z,82.52
2019-05-29T05:32:44.070Z,82.63
2019-05-29T05:33:14.001Z,82.62
2019-05-29T05:33:44.050Z,82.63
2019-05-29T05:34:14.022Z,82.48
2019-05-29T05:34:44.241Z,82.35
2019-05-29T05:35:14.994Z,82.33
2019-05-29T05:35:44.064Z,82.16
2019-05-29T05:36:13.992Z,82.32
2019-05-29T05:36:44.128Z,82.47
2019-05-29T05:37:13.991Z,82.41
2019-05-29T05:37:44.052Z,82.30
2019-05-29T05:38:13.993Z,82.21
2019-05-29T05:38:44.136Z,81.93
2019-05-29T05:39:13.994Z,82.10
2019-05-29T05:39:44.056Z,82.34
2019-05-29T05:40:15.218Z,82.30
2019-05-29T05:40:46.289Z,82.32
2019-05-29T05:41:14.003Z,82.25
2019-05-29T05:41:48.169Z,82.23
2019-05-29T05:42:13.992Z,82.07
2019-05-29T05:42:47.096Z,82.27
2019-05-29T05:43:23.935Z,82.26
2019-05-29T05:43:44.077Z,82.28
2019-05-29T05:44:13.999Z,82.30
2019-05-29T05:44:44.064Z,82.31
2019-05-29T05:45:13.994Z,81.96
2019-05-29T05:45:44.066Z,82.04
2019-05-29T05:46:13.997Z,82.01
2019-05-29T05:46:44.055Z,82.04
2019-05-29T05:47:13.994Z,81.95
2019-05-29T05:47:56.768Z,81.90
2019-05-29T05:48:13.991Z,81.81
2019-05-29T05:48:44.061Z,81.54
2019-05-29T05:49:13.997Z,81.55
2019-05-29T05:49:44.068Z,81.62
2019-05-29T05:50:13.997Z,81.81
2019-05-29T05:50:44.064Z,81.81
2019-05-29T05:51:16.264Z,81.93
2019-05-29T05:51:45.067Z,81.68
2019-05-29T05:52:18.239Z,81.13
2019-05-29T05:52:44.060Z,80.92
2019-05-29T05:53:14.016Z,81.17
2019-05-29T05:53:44.061Z,80.86
2019-05-29T05:54:13.996Z,81.05
2019-05-29T05:54:44.065Z,80.76
2019-05-29T05:55:14.015Z,80.90
2019-05-29T05:55:44.058Z,81.20
2019-05-29T05:56:13.996Z,81.55
2019-05-29T05:56:44.065Z,81.69
2019-05-29T05:57:13.995Z,81.80
2019-05-29T05:57:44.060Z,81.38
2019-05-29T05:58:14.004Z,81.20
2019-05-29T05:58:44.181Z,81.51
2019-05-29T05:59:14.002Z,81.56
2019-05-29T05:59:44.155Z,81.55
2019-05-29T06:00:14.034Z,81.53
2019-05-29T06:00:44.068Z,81.36
2019-05-29T06:01:14.007Z,81.31
2019-05-29T06:01:46.333Z,81.47
2019-05-29T06:02:14.035Z,81.53
2019-05-29T06:02:51.522Z,81.43
2019-05-29T06:03:13.995Z,81.31
2019-05-29T06:03:47.115Z,81.14
2019-05-29T06:04:13.992Z,81.11
2019-05-29T06:04:44.063Z,81.22
2019-05-29T06:05:13.997Z,81.19
2019-05-29T06:05:44.068Z,81.16
2019-05-29T06:06:13.997Z,81.39
2019-05-29T06:06:44.065Z,81.16
2019-05-29T06:07:13.998Z,80.85
2019-05-29T06:07:44.134Z,80.72
2019-05-29T06:08:13.999Z,80.61
2019-05-29T06:08:44.061Z,80.52
2019-05-29T06:09:13.995Z,80.60
2019-05-29T06:09:44.061Z,80.35
2019-05-29T06:10:14.002Z,80.61
2019-05-29T06:10:44.067Z,80.72
2019-05-29T06:11:13.998Z,80.69
2019-05-29T06:11:44.069Z,80.75
2019-05-29T06:12:16.313Z,80.41
2019-05-29T06:12:44.063Z,80.60
2019-05-29T06:13:18.093Z,80.40
2019-05-29T06:13:44.060Z,80.58
2019-05-29T06:14:14.006Z,80.61
2019-05-29T06:14:44.060Z,80.43
2019-05-29T06:15:14.014Z,80.17
2019-05-29T06:15:44.064Z,80.23
2019-05-29T06:16:14.017Z,79.93
2019-05-29T06:16:44.066Z,79.93
2019-05-29T06:17:14.005Z,80.14
2019-05-29T06:18:00.792Z,80.26
2019-05-29T06:18:21.370Z,80.04
2019-05-29T06:18:44.069Z,80.04
2019-05-29T06:19:14.013Z,80.13
2019-05-29T06:19:44.066Z,80.57
2019-05-29T06:20:14.017Z,80.57
2019-05-29T06:20:44.110Z,80.06
2019-05-29T06:21:14.016Z,80.55
2019-05-29T06:21:44.067Z,80.82
2019-05-29T06:22:14.011Z,80.42
2019-05-29T06:22:46.315Z,80.20
2019-05-29T06:23:14.017Z,80.39
2019-05-29T06:23:48.247Z,80.39
2019-05-29T06:24:14.008Z,80.14
2019-05-29T06:24:47.139Z,80.06
2019-05-29T06:25:14.004Z,79.81
2019-05-29T06:25:45.071Z,79.71
2019-05-29T06:26:15.025Z,79.83